Time;durP1;ratioP1;P1;durP2;ratioP2;P2;SDS_P1;SDS_P2;PMS_P1;PMS_P2;Temp;Humidity;BMP_temperature;BMP_pressure;BME280_temperature;BME280_humidity;BME280_pressure;Samples;Min_cycle;Max_cycle;Signal;HPM_P1;HPM_P2
2021/04/15 00:01:19;;;;;;;50.30;30.30;;;;;;;9.32;69.82;71598.09;5032018;28;20176;-87
2021/04/15 00:03:46;;;;;;;45.17;27.75;;;;;;;9.43;69.58;71611.19;5032536;28;20022;-87
2021/04/15 00:06:17;;;;;;;49.47;28.30;;;;;;;9.53;68.45;71621.91;5032248;28;20120;-86
2021/04/15 00:08:46;;;;;;;49.45;29.83;;;;;;;9.23;68.85;71587.38;5032088;28;20172;-86
2021/04/15 00:11:16;;;;;;;44.45;26.42;;;;;;;9.75;68.44;71644.16;5031060;28;20029;-86
2021/04/15 00:13:49;;;;;;;41.13;29.65;;;;;;;10.02;67.58;71677.84;5032956;28;20061;-87
2021/04/15 00:16:17;;;;;;;40.03;24.70;;;;;;;8.98;67.60;71553.94;5031789;28;20179;-87
2021/04/15 00:18:44;;;;;;;43.13;29.98;;;;;;;10.02;67.47;71677.84;5033511;28;20119;-87
2021/04/15 00:21:13;;;;;;;45.78;30.15;;;;;;;9.49;66.60;71612.25;5045669;28;20055;-86
2021/04/15 00:23:40;;;;;;;40.15;27.52;;;;;;;9.77;66.94;71649.88;5046332;28;20517;-86
2021/04/15 00:26:09;;;;;;;42.58;28.80;;;;;;;9.90;67.90;71664.75;5032533;28;20053;-87
2021/04/15 00:28:36;;;;;;;39.42;26.17;;;;;;;9.62;67.67;71632.59;5032855;28;20029;-88
2021/04/15 00:31:03;;;;;;;46.78;26.08;;;;;;;9.40;67.39;71604.88;5032717;28;20032;-87
2021/04/15 00:33:30;;;;;;;43.22;29.25;;;;;;;9.44;68.00;71609.63;5032599;28;20390;-87
2021/04/15 00:35:57;;;;;;;38.20;24.33;;;;;;;9.48;66.21;71613.19;5032358;28;20033;-87
2021/04/15 00:38:26;;;;;;;42.40;25.45;;;;;;;9.78;68.04;71650.47;5032152;28;20025;-87
2021/04/15 00:40:54;;;;;;;41.60;27.88;;;;;;;9.43;67.43;71608.44;5019600;28;20029;-86
2021/04/15 00:43:26;;;;;;;42.67;26.25;;;;;;;10.25;67.17;71705.25;5031237;28;20478;-87
2021/04/15 00:45:53;;;;;;;37.55;26.60;;;;;;;9.47;67.21;71614.75;5032250;28;20029;-87
2021/04/15 00:48:38;;;;;;;39.97;27.63;;;;;;;9.85;67.85;71656.66;5032464;28;20040;-87
2021/04/15 00:51:25;;;;;;;38.22;25.92;;;;;;;9.97;68.13;71673.09;5031677;28;20037;-87
2021/04/15 00:54:01;;;;;;;42.60;23.17;;;;;;;9.92;66.54;71667.13;5031523;28;20034;-88
2021/04/15 00:56:28;;;;;;;42.95;24.27;;;;;;;9.62;66.60;71629.28;5020616;28;20029;-87
2021/04/15 00:58:55;;;;;;;42.78;26.20;;;;;;;10.04;67.05;71680.25;5033447;28;20025;-87
2021/04/15 01:01:22;;;;;;;48.20;27.58;;;;;;;10.03;66.08;71676.31;5033690;28;20505;-87
2021/04/15 01:03:49;;;;;;;41.88;26.13;;;;;;;10.39;66.11;71720.72;5032372;28;20029;-87
2021/04/15 01:06:17;;;;;;;40.47;24.33;;;;;;;10.61;65.98;71745.75;5030874;28;20033;-87
2021/04/15 01:08:44;;;;;;;35.25;26.30;;;;;;;10.60;65.16;71744.56;5018683;28;20128;-85
2021/04/15 01:11:38;;;;;;;36.40;25.15;;;;;;;10.66;65.61;71748.97;5030956;28;20056;-85
2021/04/15 01:14:28;;;;;;;42.90;26.42;;;;;;;10.60;65.01;71744.56;5012550;28;20403;-86
2021/04/15 01:17:02;;;;;;;37.33;22.67;;;;;;;10.87;64.67;71775.56;5011115;28;20076;-86
2021/04/15 01:20:06;;;;;;;33.08;22.05;;;;;;;10.72;64.55;71758.28;5010551;28;20113;-88
2021/04/15 01:22:50;;;;;;;36.85;23.88;;;;;;;10.67;64.78;71750.16;5011117;28;20091;-87
2021/04/15 01:25:45;;;;;;;36.20;25.35;;;;;;;10.51;64.90;71728.94;5010899;28;20057;-87
2021/04/15 01:28:21;;;;;;;43.50;24.05;;;;;;;10.48;65.19;71730.88;5019632;28;20030;-86
2021/04/15 01:31:34;;;;;;;38.97;23.15;;;;;;;10.75;64.32;71756.94;5030646;28;20029;-88
2021/04/15 01:34:13;;;;;;;35.40;22.75;;;;;;;9.84;64.54;71655.47;5030077;28;20056;-86
2021/04/15 01:37:00;;;;;;;36.55;25.02;;;;;;;10.85;65.23;71773.16;5032129;28;20108;-87
2021/04/15 01:39:35;;;;;;;39.15;24.73;;;;;;;11.12;63.62;71804.75;5030036;28;20576;-87
2021/04/15 01:42:27;;;;;;;32.47;21.80;;;;;;;10.89;63.04;71777.94;5028288;28;20479;-88
2021/04/15 01:45:00;;;;;;;36.83;21.13;;;;;;;10.44;63.02;71723.97;5011252;28;20026;-87
2021/04/15 01:47:42;;;;;;;33.58;20.10;;;;;;;11.00;62.32;71791.03;5010649;28;20030;-87
2021/04/15 01:50:27;;;;;;;35.72;22.90;;;;;;;10.43;61.77;71722.78;5025449;28;20029;-90
2021/04/15 01:52:59;;;;;;;33.40;21.85;;;;;;;10.98;62.08;71785.31;5033218;28;20478;-92
2021/04/15 01:55:41;;;;;;;41.20;23.48;;;;;;;10.99;63.58;71787.09;5031422;28;20034;-90
2021/04/15 01:58:20;;;;;;;39.05;26.38;;;;;;;9.59;64.14;71629.03;5033142;28;20097;-89
2021/04/15 02:00:49;;;;;;;37.83;26.00;;;;;;;11.03;62.76;71791.88;5032946;28;20059;-89
2021/04/15 02:03:27;;;;;;;38.13;26.08;;;;;;;10.49;63.03;71729.94;5034335;28;20284;-92
2021/04/15 02:06:02;;;;;;;34.85;26.60;;;;;;;10.33;62.45;71713.59;5035298;28;20045;-91
2021/04/15 02:08:35;;;;;;;37.33;25.90;;;;;;;10.72;62.06;71758.88;5040758;28;20061;-91
2021/04/15 02:11:10;;;;;;;37.70;28.60;;;;;;;10.61;61.88;71743.03;5052013;28;20016;-89
2021/04/15 02:13:44;;;;;;;54.00;29.20;;;;;;;10.10;63.18;71684.66;5058576;28;20039;-90
2021/04/15 02:16:17;;;;;;;49.20;30.77;;;;;;;10.77;63.26;71761.50;5057890;28;20030;-93
2021/04/15 02:19:03;;;;;;;41.65;29.02;;;;;;;11.14;62.65;71801.03;5054122;28;20021;-91
2021/04/15 02:21:56;;;;;;;49.60;29.70;;;;;;;11.21;62.34;71815.50;5041901;28;20025;-86
2021/04/15 02:24:30;;;;;;;39.50;29.38;;;;;;;11.47;62.00;71842.53;5043208;28;20044;-88
2021/04/15 02:27:04;;;;;;;37.35;28.15;;;;;;;11.49;62.29;71847.66;5048980;28;20057;-86
2021/04/15 02:29:35;;;;;;;38.00;27.38;;;;;;;11.79;61.27;71876.16;5055449;28;20057;-88
2021/04/15 02:32:11;;;;;;;44.58;29.83;;;;;;;10.94;60.43;71781.16;5043116;28;20033;-89
2021/04/15 02:34:52;;;;;;;45.58;27.50;;;;;;;11.11;59.58;71800.81;5046387;28;20013;-89
2021/04/15 02:37:24;;;;;;;33.45;26.38;;;;;;;11.43;59.49;71835.03;5033687;28;20036;-87
2021/04/15 02:40:00;;;;;;;38.60;24.33;;;;;;;11.55;59.24;71854.22;5026103;28;20044;-89
2021/04/15 02:42:31;;;;;;;41.22;24.38;;;;;;;10.99;60.44;71787.09;5036299;28;20029;-91
2021/04/15 02:45:04;;;;;;;43.78;27.48;;;;;;;9.96;62.22;71671.91;5041183;28;20509;-91
2021/04/15 02:47:46;;;;;;;37.35;23.85;;;;;;;10.32;62.93;71709.63;5049094;28;20033;-87
2021/04/15 02:50:18;;;;;;;49.20;26.75;;;;;;;10.76;65.62;71757.56;5046830;28;20030;-89
2021/04/15 02:52:50;;;;;;;40.03;28.02;;;;;;;11.04;65.17;71793.06;5040698;28;20022;-87
2021/04/15 02:55:23;;;;;;;45.65;29.77;;;;;;;10.74;68.05;71761.25;5042870;28;20041;-89
2021/04/15 02:57:53;;;;;;;45.13;30.70;;;;;;;10.26;66.23;71705.84;5043381;28;20026;-88
2021/04/15 03:00:27;;;;;;;53.17;31.58;;;;;;;11.01;66.89;71792.25;5046384;28;20029;-87
2021/04/15 03:03:00;;;;;;;45.22;30.13;;;;;;;10.85;67.95;71773.16;5044355;28;20112;-90
2021/04/15 03:05:29;;;;;;;50.17;33.88;;;;;;;10.43;68.04;71725.53;5038605;28;20033;-88
2021/04/15 03:08:00;;;;;;;54.35;34.30;;;;;;;10.71;68.59;71754.34;5027419;28;20030;-89
2021/04/15 03:10:40;;;;;;;40.97;27.83;;;;;;;10.62;69.01;71744.81;5029889;28;20086;-89
2021/04/15 03:13:21;;;;;;;46.80;28.33;;;;;;;10.97;67.41;71787.47;5034955;28;20030;-89
2021/04/15 03:15:54;;;;;;;39.55;25.60;;;;;;;10.22;67.42;71701.66;5031644;28;20041;-89
2021/04/15 03:18:33;;;;;;;45.67;25.88;;;;;;;10.66;66.63;71751.72;5035622;28;20030;-91
2021/04/15 03:21:26;;;;;;;48.67;30.05;;;;;;;10.87;67.03;71770.06;5027437;28;20034;-89
2021/04/15 03:24:01;;;;;;;55.13;25.63;;;;;;;10.78;66.45;71760.53;5047921;28;20043;-89
2021/04/15 03:26:57;;;;;;;34.33;24.33;;;;;;;10.81;66.38;71769.59;5029214;28;20076;-90
2021/04/15 03:29:32;;;;;;;35.22;22.83;;;;;;;10.74;65.55;71761.25;5034305;28;20036;-91
2021/04/15 03:32:23;;;;;;;34.42;24.27;;;;;;;10.97;66.24;71787.47;5034436;28;20033;-89
2021/04/15 03:35:25;;;;;;;51.17;26.30;;;;;;;11.19;67.09;71813.09;5033652;28;20108;-89
2021/04/15 03:37:55;;;;;;;40.17;23.80;;;;;;;10.94;67.08;71781.16;5036984;28;20045;-90
2021/04/15 03:40:28;;;;;;;47.92;25.83;;;;;;;10.75;68.06;71759.13;5039076;28;20045;-90
2021/04/15 03:42:58;;;;;;;37.50;22.77;;;;;;;9.52;69.41;71621.28;5037879;28;20033;-90
2021/04/15 03:45:29;;;;;;;51.30;25.98;;;;;;;10.75;68.80;71762.44;5039365;28;20064;-89
2021/04/15 03:48:02;;;;;;;40.40;24.10;;;;;;;10.11;68.66;71688.59;5040958;28;20053;-89
2021/04/15 03:50:50;;;;;;;42.40;24.58;;;;;;;10.90;68.26;71774.25;5053819;28;20025;-89
2021/04/15 03:53:27;;;;;;;33.90;21.90;;;;;;;11.07;67.42;71799.38;5046271;28;20045;-88
2021/04/15 03:56:05;;;;;;;36.58;21.02;;;;;;;10.48;68.76;71730.88;5049441;28;20081;-89
2021/04/15 03:58:46;;;;;;;37.13;21.52;;;;;;;10.64;68.56;71749.34;5039197;28;20079;-89
2021/04/15 04:01:37;;;;;;;34.85;21.30;;;;;;;10.85;68.17;71773.16;5035705;28;20529;-89
2021/04/15 04:04:22;;;;;;;36.78;21.70;;;;;;;10.90;67.94;71779.13;5034499;28;20025;-90
2021/04/15 04:06:51;;;;;;;31.83;21.60;;;;;;;11.04;67.07;71795.81;5033601;28;20029;-90
2021/04/15 04:09:31;;;;;;;32.72;20.13;;;;;;;10.75;67.61;71762.44;5037846;28;20033;-90
2021/04/15 04:12:02;;;;;;;34.05;20.38;;;;;;;10.75;67.59;71762.44;5021056;28;20076;-90
2021/04/15 04:14:55;;;;;;;37.45;21.27;;;;;;;10.70;67.10;71755.91;5033404;28;20025;-90
2021/04/15 04:17:46;;;;;;;34.75;21.85;;;;;;;10.83;66.53;71765.91;5011579;28;20038;-90
2021/04/15 04:20:14;;;;;;;33.45;18.70;;;;;;;10.40;64.87;71719.16;5031174;28;20026;-91
2021/04/15 04:22:51;;;;;;;28.90;16.70;;;;;;;10.57;64.70;71741.00;5027716;28;20390;-90
2021/04/15 04:25:53;;;;;;;31.83;17.52;;;;;;;10.70;65.38;71755.91;5034872;28;20049;-89
2021/04/15 04:28:34;;;;;;;26.80;16.85;;;;;;;10.63;63.20;71745.41;5034636;28;20108;-89
2021/04/15 04:31:21;;;;;;;21.67;14.48;;;;;;;10.69;61.67;71749.81;5023452;28;20103;-90
2021/04/15 04:33:52;;;;;;;30.50;15.88;;;;;;;10.79;62.35;71764.47;5032659;28;20029;-90
2021/04/15 04:36:22;;;;;;;20.55;14.20;;;;;;;10.57;60.69;71735.50;5033046;28;20025;-89
2021/04/15 04:38:52;;;;;;;28.35;16.08;;;;;;;10.94;62.73;71783.91;5032427;28;20112;-88
2021/04/15 04:41:54;;;;;;;31.02;16.45;;;;;;;10.80;62.88;71768.41;5033088;28;20478;-89
2021/04/15 04:44:23;;;;;;;35.30;16.20;;;;;;;11.22;62.44;71813.31;5030496;28;20044;-89
2021/04/15 04:47:13;;;;;;;30.83;16.45;;;;;;;10.96;62.37;71780.78;5031995;28;20390;-90
2021/04/15 04:49:44;;;;;;;28.73;18.25;;;;;;;10.37;64.72;71716.22;5042833;28;20498;-89
2021/04/15 04:52:23;;;;;;;28.63;15.85;;;;;;;11.14;62.16;71801.03;5032958;28;20029;-90
2021/04/15 04:54:51;;;;;;;37.33;17.15;;;;;;;9.65;64.72;71635.59;5036250;28;20030;-89
2021/04/15 04:57:33;;;;;;;36.20;17.65;;;;;;;10.90;63.07;71776.38;5036584;28;20022;-91
2021/04/15 05:00:13;;;;;;;26.52;14.45;;;;;;;10.66;64.17;71751.72;5033376;28;20064;-88
2021/04/15 05:02:40;;;;;;;25.33;16.15;;;;;;;9.81;63.27;71654.63;5034590;28;20022;-91
2021/04/15 05:05:23;;;;;;;30.70;15.98;;;;;;;10.67;64.90;71750.16;5058520;28;20037;-89
2021/04/15 05:08:03;;;;;;;26.92;16.90;;;;;;;10.78;63.37;71766.03;5047423;28;20037;-90
2021/04/15 05:10:32;;;;;;;30.42;16.77;;;;;;;10.32;66.81;71713.00;5044577;28;20033;-91
2021/04/15 05:13:15;;;;;;;25.95;17.83;;;;;;;10.62;66.55;71741.47;5037225;28;20033;-89
2021/04/15 05:15:43;;;;;;;28.48;18.70;;;;;;;11.18;66.06;71811.31;5041015;28;20025;-87
2021/04/15 05:18:15;;;;;;;37.60;18.52;;;;;;;10.62;65.83;71741.47;5035470;28;20030;-89
2021/04/15 05:20:43;;;;;;;24.88;16.88;;;;;;;10.20;64.97;71695.94;5019017;28;20555;-89
2021/04/15 05:23:57;;;;;;;25.65;16.40;;;;;;;11.38;64.23;71833.94;5025688;28;20030;-89
2021/04/15 05:26:29;;;;;;;29.95;16.05;;;;;;;11.29;63.21;71821.09;5005176;28;20061;-91
2021/04/15 05:29:00;;;;;;;29.70;19.58;;;;;;;10.99;63.78;71789.28;5032153;28;20032;-89
2021/04/15 05:31:29;;;;;;;28.25;17.80;;;;;;;11.45;63.51;71840.16;5047711;28;20026;-90
2021/04/15 05:33:59;;;;;;;24.33;16.42;;;;;;;11.32;62.96;71821.91;5031897;28;20032;-90
2021/04/15 05:36:29;;;;;;;25.92;16.98;;;;;;;11.48;64.31;71843.13;5031942;28;20032;-90
2021/04/15 05:38:58;;;;;;;32.65;19.55;;;;;;;11.11;66.34;71803.56;5031933;28;20116;-90
2021/04/15 05:41:34;;;;;;;33.15;17.98;;;;;;;10.66;65.64;71749.56;5032722;28;20022;-90
2021/04/15 05:44:30;;;;;;;32.60;18.70;;;;;;;10.70;68.51;71753.16;5035879;28;20025;-90
2021/04/15 05:46:57;;;;;;;29.17;19.13;;;;;;;10.80;69.99;71765.66;5036332;28;20045;-90
2021/04/15 05:49:37;;;;;;;46.45;20.52;;;;;;;10.84;70.04;71767.09;5036462;28;20025;-89
2021/04/15 05:52:24;;;;;;;;;;;;;;;10.85;70.61;71767.66;5033665;28;20032;-90
2021/04/15 05:54:58;;;;;;;30.83;20.42;;;;;;;10.49;68.83;71732.66;5040820;28;19919;-90
2021/04/15 05:57:31;;;;;;;33.75;20.92;;;;;;;10.35;69.84;71716.56;5048407;28;20025;-89
2021/04/15 06:00:31;;;;;;;29.65;19.35;;;;;;;10.99;70.30;71789.84;5043376;28;20021;-89
2021/04/15 06:03:22;;;;;;;27.58;19.70;;;;;;;10.86;68.88;71774.38;5039550;28;20029;-89
2021/04/15 06:06:02;;;;;;;33.97;19.08;;;;;;;10.91;70.17;71780.31;5038348;28;20029;-89
2021/04/15 06:08:34;;;;;;;31.70;19.42;;;;;;;10.56;69.25;71737.66;5046600;28;20022;-89
2021/04/15 06:11:26;;;;;;;35.92;19.00;;;;;;;10.91;66.77;71780.31;5034112;28;20471;-87
2021/04/15 06:14:18;;;;;;;24.27;17.88;;;;;;;10.37;66.02;71715.59;5034223;28;20124;-89
2021/04/15 06:17:06;;;;;;;31.40;18.23;;;;;;;10.51;66.62;71729.56;5060443;28;20386;-89
2021/04/15 06:19:35;;;;;;;28.25;19.40;;;;;;;10.89;67.35;71777.94;5058463;28;20036;-89
2021/04/15 06:22:23;;;;;;;33.47;19.08;;;;;;;11.03;67.12;71791.28;5038122;28;20024;-89
2021/04/15 06:24:58;;;;;;;33.08;18.00;;;;;;;10.87;68.34;71776.16;5036286;28;20029;-90
2021/04/15 06:27:26;;;;;;;28.10;18.50;;;;;;;10.87;68.30;71776.16;5034732;28;20422;-89
2021/04/15 06:30:17;;;;;;;31.88;20.17;;;;;;;10.82;69.80;71765.28;5037408;28;20099;-88
2021/04/15 06:32:55;;;;;;;38.65;17.50;;;;;;;10.94;69.32;71784.50;5043006;28;20056;-90
2021/04/15 06:35:29;;;;;;;32.55;19.95;;;;;;;10.07;70.55;71683.81;5034602;28;20491;-90
2021/04/15 06:38:05;;;;;;;26.90;17.42;;;;;;;11.02;68.37;71787.94;5035928;28;20021;-90
2021/04/15 06:40:53;;;;;;;28.02;19.60;;;;;;;11.08;69.60;71795.09;5033555;28;20029;-89
2021/04/15 06:43:48;;;;;;;27.65;19.38;;;;;;;10.78;68.77;71763.28;5018908;28;20475;-90
2021/04/15 06:46:24;;;;;;;24.20;15.35;;;;;;;11.04;68.91;71793.06;5023262;28;20040;-88
2021/04/15 06:49:22;;;;;;;27.70;15.70;;;;;;;11.32;67.56;71825.25;5035393;28;20037;-89
2021/04/15 06:52:23;;;;;;;31.95;17.73;;;;;;;11.31;67.20;71824.06;5034856;28;20034;-87
2021/04/15 06:54:56;;;;;;;27.83;16.80;;;;;;;11.50;66.18;71842.75;5033662;28;20026;-89
2021/04/15 06:57:55;;;;;;;23.63;14.57;;;;;;;11.40;65.06;71836.94;5034382;28;20033;-88
2021/04/15 07:00:42;;;;;;;21.38;14.82;;;;;;;11.52;62.51;71845.13;5034619;28;20402;-88
2021/04/15 07:04:09;;;;;;;27.95;15.63;;;;;;;11.60;63.90;71856.84;5034533;28;20033;-90
2021/04/15 07:06:50;;;;;;;27.25;15.10;;;;;;;11.96;63.73;71901.34;5016659;28;20128;-90
2021/04/15 07:09:41;;;;;;;27.05;15.20;;;;;;;12.04;60.40;71910.28;5017479;28;20064;-90
2021/04/15 07:12:26;;;;;;;23.95;14.68;;;;;;;12.04;61.46;71908.13;5034995;28;20072;-90
2021/04/15 07:15:27;;;;;;;24.27;16.92;;;;;;;11.75;64.40;71877.47;5036280;28;20042;-90
2021/04/15 07:18:03;;;;;;;33.22;17.23;;;;;;;11.91;65.08;71890.44;5015140;28;20487;-89
2021/04/15 07:20:49;;;;;;;28.85;16.35;;;;;;;11.21;62.79;71815.50;5017582;28;20029;-91
2021/04/15 07:23:40;;;;;;;32.63;17.20;;;;;;;11.81;64.54;71880.69;5037099;28;20041;-89
2021/04/15 07:26:43;;;;;;;33.03;16.98;;;;;;;11.87;64.65;71890.59;5038491;28;20117;-89
2021/04/15 07:29:36;;;;;;;23.58;15.00;;;;;;;11.63;62.29;71860.41;5028245;28;20025;-89
2021/04/15 07:32:18;;;;;;;29.40;16.50;;;;;;;12.02;63.10;71902.38;5031684;28;20372;-87
2021/04/15 07:35:04;;;;;;;22.20;14.82;;;;;;;12.05;62.79;71905.97;5045606;28;20037;-87
2021/04/15 07:38:01;;;;;;;21.90;14.00;;;;;;;11.33;62.26;71825.84;5034473;28;20176;-87
2021/04/15 07:40:55;;;;;;;22.50;16.83;;;;;;;12.14;62.97;71922.22;5044811;28;20116;-88
2021/04/15 07:43:59;;;;;;;21.00;13.20;;;;;;;11.85;61.84;71882.69;5023561;28;20026;-87
2021/04/15 07:46:29;;;;;;;25.38;12.77;;;;;;;11.94;61.42;71896.19;5043183;28;20037;-87
2021/04/15 07:49:02;;;;;;;23.00;13.32;;;;;;;11.89;58.91;71890.22;5030674;28;20022;-87
2021/04/15 07:51:47;;;;;;;22.30;12.80;;;;;;;11.87;59.58;71888.44;5031676;28;20065;-87
2021/04/15 07:55:00;;;;;;;17.85;11.43;;;;;;;12.17;60.97;71922.44;5030428;28;20026;-87
2021/04/15 07:57:48;;;;;;;24.70;14.20;;;;;;;11.91;62.88;71893.19;5032461;28;20128;-87
2021/04/15 08:00:43;;;;;;;23.08;13.85;;;;;;;11.71;64.28;71869.94;5014237;28;20029;-86
2021/04/15 08:03:24;;;;;;;22.13;12.23;;;;;;;11.17;62.28;71807.97;5012674;28;20121;-89
2021/04/15 08:06:24;;;;;;;17.67;11.88;;;;;;;11.65;60.44;71862.78;5010610;28;20038;-88
2021/04/15 08:08:54;;;;;;;18.45;12.55;;;;;;;11.71;61.71;71869.38;5023707;28;20037;-87
2021/04/15 08:11:30;;;;;;;24.00;13.13;;;;;;;11.66;62.39;71864.00;5033165;28;20041;-88
2021/04/15 08:14:03;;;;;;;20.52;12.93;;;;;;;11.68;62.53;71863.03;5030532;28;20478;-88
2021/04/15 08:16:51;;;;;;;17.27;11.73;;;;;;;11.18;60.76;71811.31;5045992;28;20025;-89
2021/04/15 08:19:36;;;;;;;20.80;12.93;;;;;;;12.03;60.06;71906.34;5033018;28;20382;-88
2021/04/15 08:22:14;;;;;;;21.50;11.88;;;;;;;12.03;58.50;71906.34;5033507;28;20022;-87
2021/04/15 08:25:06;;;;;;;20.95;10.15;;;;;;;12.10;57.64;71917.44;5028029;28;20479;-86
2021/04/15 08:28:09;;;;;;;23.52;11.27;;;;;;;12.22;57.77;71927.81;5039725;28;20033;-88
2021/04/15 08:31:04;;;;;;;16.67;9.52;;;;;;;11.74;55.03;71872.94;5028732;28;20065;-89
2021/04/15 08:33:54;;;;;;;19.85;9.45;;;;;;;11.57;53.61;71853.84;5022372;28;20075;-88
2021/04/15 08:36:52;;;;;;;18.52;6.93;;;;;;;12.29;48.04;71933.41;5030925;28;20083;-88
2021/04/15 08:39:37;;;;;;;18.23;6.28;;;;;;;12.03;47.83;71909.09;5046088;28;20087;-88
2021/04/15 08:42:41;;;;;;;19.45;6.70;;;;;;;12.17;45.87;71922.44;5022775;28;20513;-88
2021/04/15 08:45:23;;;;;;;21.52;7.30;;;;;;;12.12;47.69;71917.06;5031399;28;20096;-87
2021/04/15 08:48:08;;;;;;;17.05;8.13;;;;;;;12.10;51.20;71914.09;5031727;28;20025;-89
2021/04/15 08:51:01;;;;;;;19.50;8.52;;;;;;;11.34;55.66;71830.38;5059062;28;20120;-86
2021/04/15 08:53:37;;;;;;;17.70;10.38;;;;;;;12.02;57.83;71907.88;5032829;28;20026;-88
2021/04/15 08:56:15;;;;;;;17.08;12.20;;;;;;;11.98;61.07;71903.09;5035614;28;20055;-89
2021/04/15 08:59:02;;;;;;;24.20;14.07;;;;;;;11.80;63.31;71882.25;5031709;28;20026;-89
2021/04/15 09:01:47;;;;;;;24.27;15.80;;;;;;;11.85;64.32;71883.31;5035265;28;20364;-89
2021/04/15 09:04:41;;;;;;;22.98;15.50;;;;;;;11.57;66.17;71856.63;5032311;28;20037;-91
2021/04/15 09:07:23;;;;;;;25.52;17.10;;;;;;;10.98;66.60;71785.91;5024726;28;20033;-89
2021/04/15 09:10:20;;;;;;;26.38;14.32;;;;;;;11.29;67.38;71824.41;5013247;28;20030;-89
2021/04/15 09:13:31;;;;;;;26.30;15.52;;;;;;;10.37;68.70;71712.84;5027668;28;20024;-94
2021/04/15 09:16:23;;;;;;;32.05;15.93;;;;;;;10.98;67.96;71783.16;5034318;28;20037;-91
2021/04/15 09:19:27;;;;;;;30.52;17.83;;;;;;;10.86;68.81;71769.47;5027249;28;20078;-96
2021/04/15 09:22:32;;;;;;;31.55;16.77;;;;;;;10.79;69.40;71767.22;5032028;28;20037;-91
2021/04/15 09:25:32;;;;;;;25.13;16.52;;;;;;;10.33;69.29;71714.19;5034571;28;20072;-88
2021/04/15 09:28:07;;;;;;;27.25;15.73;;;;;;;10.69;68.38;71755.28;5030631;28;20049;-89
2021/04/15 09:31:15;;;;;;;31.67;19.10;;;;;;;10.83;68.96;71771.41;5031844;28;20057;-88
2021/04/15 09:34:00;;;;;;;24.55;17.23;;;;;;;10.76;68.51;71763.63;5029138;28;20497;-92
2021/04/15 09:36:36;;;;;;;24.55;18.15;;;;;;;10.76;67.94;71760.31;5036330;28;20501;-93
2021/04/15 09:39:19;;;;;;;25.63;17.20;;;;;;;10.61;67.38;71743.63;5036812;28;20030;-90
2021/04/15 09:42:07;;;;;;;27.05;17.63;;;;;;;10.65;67.29;71750.53;5050835;28;20029;-90
2021/04/15 09:44:37;;;;;;;24.50;16.42;;;;;;;9.89;67.67;71663.56;5036828;28;20041;-86
2021/04/15 09:47:29;;;;;;;25.98;15.05;;;;;;;10.47;67.58;71730.28;5025079;28;20088;-91
2021/04/15 09:50:10;;;;;;;24.05;16.35;;;;;;;10.40;66.14;71719.16;5034944;28;20033;-94
2021/04/15 09:53:01;;;;;;;30.05;16.50;;;;;;;10.19;66.47;71692.00;5037934;28;20051;-90
2021/04/15 09:55:31;;;;;;;25.52;16.77;;;;;;;10.12;67.23;71690.34;5042900;28;20030;-92
2021/04/15 09:58:19;;;;;;;31.55;16.48;;;;;;;9.97;68.86;71667.59;5040250;28;20038;-91
2021/04/15 10:00:50;;;;;;;25.13;16.67;;;;;;;9.57;68.20;71626.66;5043596;28;20060;-90
2021/04/15 10:03:29;;;;;;;29.88;17.33;;;;;;;9.94;69.12;71666.75;5034952;28;20399;-90
2021/04/15 10:06:24;;;;;;;23.35;18.02;;;;;;;9.66;70.44;71634.63;5039032;28;20539;-90
2021/04/15 10:08:57;;;;;;;25.75;17.60;;;;;;;9.86;72.47;71660.00;5040558;28;20430;-90
2021/04/15 10:11:51;;;;;;;35.03;18.40;;;;;;;9.92;73.80;71667.13;5044002;28;20025;-90
2021/04/15 10:14:49;;;;;;;26.67;17.75;;;;;;;9.90;71.77;71659.28;5042462;28;20068;-91
2021/04/15 10:17:45;;;;;;;29.55;18.65;;;;;;;9.17;71.92;71581.44;5025693;28;20034;-88
2021/04/15 10:20:33;;;;;;;26.48;17.13;;;;;;;9.72;70.25;71641.19;5014647;28;20033;-88
2021/04/15 10:23:06;;;;;;;26.63;18.23;;;;;;;9.79;70.33;71648.91;5033007;28;20096;-86
2021/04/15 10:26:07;;;;;;;31.50;18.13;;;;;;;9.67;69.41;71635.81;5035053;28;20030;-87
2021/04/15 10:29:02;;;;;;;29.83;16.23;;;;;;;9.58;68.99;71625.13;5030987;28;20503;-87
2021/04/15 10:31:47;;;;;;;29.65;15.07;;;;;;;9.44;68.81;71609.63;5038816;28;20026;-87
2021/04/15 10:34:50;;;;;;;27.55;16.17;;;;;;;9.43;68.17;71611.19;5045691;28;20030;-88
2021/04/15 10:38:07;;;;;;;22.90;15.10;;;;;;;9.43;67.29;71610.59;5024173;28;20029;-88
2021/04/15 10:40:52;;;;;;;31.27;15.55;;;;;;;9.43;68.29;71605.69;5014170;28;20042;-87
2021/04/15 10:43:43;;;;;;;31.02;16.30;;;;;;;9.70;66.92;71639.38;5014748;28;20022;-86
2021/04/15 10:46:28;;;;;;;28.42;17.60;;;;;;;9.59;67.57;71624.13;5032192;28;20056;-87
2021/04/15 10:49:29;;;;;;;29.75;18.60;;;;;;;9.36;68.24;71600.13;5037994;28;20056;-87
2021/04/15 10:52:15;;;;;;;29.85;16.35;;;;;;;9.74;68.38;71640.22;5023483;28;20029;-88
2021/04/15 10:54:43;;;;;;;24.65;16.25;;;;;;;9.16;69.72;71580.25;5035848;28;20033;-87
2021/04/15 10:57:31;;;;;;;27.73;17.63;;;;;;;9.25;69.20;71584.28;5044237;28;20044;-89
2021/04/15 11:00:20;;;;;;;32.55;17.95;;;;;;;8.36;69.09;71488.03;5044583;28;20036;-86
2021/04/15 11:02:51;;;;;;;28.38;18.73;;;;;;;9.69;68.15;71637.63;5040875;28;20037;-88
2021/04/15 11:05:26;;;;;;;23.75;16.30;;;;;;;8.97;67.01;71552.16;5035844;28;20025;-87
2021/04/15 11:07:56;;;;;;;29.30;15.50;;;;;;;9.68;67.06;71639.16;5025897;28;20025;-87
2021/04/15 11:10:32;;;;;;;26.00;15.13;;;;;;;9.22;67.34;71586.19;5033900;28;20021;-88
2021/04/15 11:13:22;;;;;;;24.15;15.18;;;;;;;9.50;67.20;71618.91;5035260;28;20034;-89
2021/04/15 11:15:55;;;;;;;17.90;13.50;;;;;;;9.22;66.82;71583.44;5032345;28;20037;-88
2021/04/15 11:18:33;;;;;;;23.52;16.65;;;;;;;9.33;66.52;71593.78;5027821;28;20037;-88
2021/04/15 11:21:26;;;;;;;23.83;15.85;;;;;;;9.26;66.99;71590.94;5040538;28;20037;-89
2021/04/15 11:23:55;;;;;;;22.73;15.32;;;;;;;9.27;67.07;71589.41;5044790;28;20030;-89
2021/04/15 11:26:52;;;;;;;34.55;18.42;;;;;;;9.35;67.01;71601.66;5039373;28;20049;-88
2021/04/15 11:29:26;;;;;;;30.17;16.02;;;;;;;9.44;67.88;71612.38;5031183;28;20041;-88
2021/04/15 11:31:54;;;;;;;27.08;17.27;;;;;;;9.53;67.83;71621.91;5034067;28;20036;-88
2021/04/15 11:34:27;;;;;;;25.83;17.10;;;;;;;9.57;68.01;71627.25;5039080;28;20089;-88
2021/04/15 11:37:09;;;;;;;28.92;18.38;;;;;;;9.68;67.69;71639.16;5048584;28;20068;-89
2021/04/15 11:39:38;;;;;;;26.40;15.13;;;;;;;9.42;68.10;71607.25;5032299;28;20042;-90
2021/04/15 11:42:12;;;;;;;33.15;16.42;;;;;;;9.44;68.44;71612.38;5029329;28;20057;-88
2021/04/15 11:44:47;;;;;;;26.48;17.38;;;;;;;8.90;70.04;71547.75;5049287;28;20039;-89
2021/04/15 11:47:23;;;;;;;31.83;16.90;;;;;;;9.22;70.03;71583.44;5030155;28;20410;-89
2021/04/15 11:49:52;;;;;;;31.30;18.23;;;;;;;9.20;70.10;71583.81;5028259;28;20125;-89
2021/04/15 11:52:32;;;;;;;27.38;16.23;;;;;;;8.87;70.31;71544.19;5030916;28;20108;-89
2021/04/15 11:55:01;;;;;;;21.67;16.40;;;;;;;9.31;69.95;71596.91;5045103;28;20022;-87
2021/04/15 11:57:32;;;;;;;24.38;16.27;;;;;;;9.37;69.85;71604.03;5055103;28;20035;-92
2021/04/15 12:00:21;;;;;;;26.63;16.80;;;;;;;9.38;69.66;71605.22;5024120;28;20029;-87
2021/04/15 12:02:56;;;;;;;28.33;18.05;;;;;;;8.95;68.64;71555.25;5028363;28;20087;-87
2021/04/15 12:05:38;;;;;;;30.02;18.65;;;;;;;9.31;69.79;71597.50;5015416;28;20022;-87
2021/04/15 12:08:18;;;;;;;25.55;16.95;;;;;;;9.10;70.90;71572.50;5023102;28;20521;-87
2021/04/15 12:10:54;;;;;;;23.70;16.88;;;;;;;8.80;70.21;71533.09;5035329;28;20018;-86
2021/04/15 12:13:23;;;;;;;26.23;16.35;;;;;;;9.01;71.16;71562.38;5037938;28;20022;-87
2021/04/15 12:16:03;;;;;;;30.08;16.98;;;;;;;8.85;71.29;71541.22;5036206;28;20052;-85
2021/04/15 12:18:40;;;;;;;24.08;18.25;;;;;;;9.31;70.22;71597.50;5029233;28;20418;-86
2021/04/15 12:21:17;;;;;;;22.02;16.52;;;;;;;8.59;69.93;71514.22;5034368;28;20032;-86
2021/04/15 12:23:50;;;;;;;31.85;19.52;;;;;;;9.36;70.00;71602.25;5031010;28;20069;-86